createdAt,value
2023-05-31T00:00:52.410Z,8.10
2023-05-31T00:03:19.638Z,8.10
2023-05-31T00:05:46.678Z,8.00
2023-05-31T00:08:13.546Z,8.00
2023-05-31T00:10:40.393Z,8.00
2023-05-31T00:13:07.527Z,7.90
2023-05-31T00:15:34.563Z,7.90
2023-05-31T00:18:01.927Z,7.80
2023-05-31T00:20:29.005Z,7.80
2023-05-31T00:22:55.925Z,7.80
2023-05-31T00:25:22.838Z,7.80
2023-05-31T00:27:49.816Z,7.80
2023-05-31T00:30:16.924Z,7.80
2023-05-31T00:32:44.057Z,7.70
2023-05-31T00:35:11.058Z,7.70
2023-05-31T00:37:38.897Z,7.70
2023-05-31T00:40:07.164Z,7.60
2023-05-31T00:42:34.398Z,7.60
2023-05-31T00:45:01.285Z,7.60
2023-05-31T00:47:28.345Z,7.60
2023-05-31T00:49:59.280Z,7.60
2023-05-31T00:52:27.255Z,7.60
2023-05-31T00:54:54.474Z,7.50
2023-05-31T00:57:21.885Z,7.50
2023-05-31T00:59:48.874Z,7.40
2023-05-31T01:02:18.490Z,7.40
2023-05-31T01:04:45.912Z,7.40
2023-05-31T01:07:12.908Z,7.40
2023-05-31T01:09:43.681Z,7.30
2023-05-31T01:12:26.949Z,7.30
2023-05-31T01:15:16.288Z,7.20
2023-05-31T01:18:12.022Z,7.20
2023-05-31T01:20:40.757Z,7.10
2023-05-31T01:23:34.768Z,7.10
2023-05-31T01:26:36.541Z,7.10
2023-05-31T01:29:10.236Z,7.10
2023-05-31T01:31:38.271Z,7.00
2023-05-31T01:34:06.321Z,7.00
2023-05-31T01:36:33.598Z,7.00
2023-05-31T01:39:02.023Z,7.00
2023-05-31T01:41:29.298Z,7.00
2023-05-31T01:43:56.710Z,7.00
2023-05-31T01:46:23.844Z,7.00
2023-05-31T01:48:51.535Z,7.00
2023-05-31T01:51:18.777Z,7.00
2023-05-31T01:53:45.980Z,6.90
2023-05-31T01:56:13.926Z,6.90
2023-05-31T01:58:42.880Z,6.90
2023-05-31T02:01:12.161Z,6.80
2023-05-31T02:03:42.358Z,6.80
2023-05-31T02:06:09.624Z,6.80
2023-05-31T02:08:36.768Z,6.80
2023-05-31T02:11:04.173Z,6.90
2023-05-31T02:13:31.645Z,6.80
2023-05-31T02:15:59.321Z,6.80
2023-05-31T02:18:29.299Z,6.80
2023-05-31T02:20:56.555Z,6.80
2023-05-31T02:23:23.517Z,6.80
2023-05-31T02:25:50.938Z,6.70
2023-05-31T02:28:18.444Z,6.70
2023-05-31T02:30:59.398Z,6.70
2023-05-31T02:33:27.349Z,6.70
2023-05-31T02:35:54.827Z,6.80
2023-05-31T02:38:21.986Z,6.80
2023-05-31T02:40:49.095Z,6.80
2023-05-31T02:43:16.013Z,6.80
2023-05-31T02:45:43.321Z,6.70
2023-05-31T02:48:10.325Z,6.70
2023-05-31T02:50:37.320Z,6.60
2023-05-31T02:53:07.110Z,6.60
2023-05-31T02:55:34.415Z,6.60
2023-05-31T02:58:01.296Z,6.60
2023-05-31T03:00:28.184Z,6.60
2023-05-31T03:02:55.163Z,6.60
2023-05-31T03:05:24.501Z,6.50
2023-05-31T03:07:51.808Z,6.50
2023-05-31T03:10:19.005Z,6.40
2023-05-31T03:12:46.183Z,6.40
2023-05-31T03:15:13.716Z,6.40
2023-05-31T03:17:41.049Z,6.40
2023-05-31T03:20:11.969Z,6.40
2023-05-31T03:22:39.794Z,6.40
2023-05-31T03:25:07.294Z,6.40
2023-05-31T03:27:37.120Z,6.40
2023-05-31T03:30:05.421Z,6.40
2023-05-31T03:32:32.411Z,6.40
2023-05-31T03:34:59.411Z,6.40
2023-05-31T03:37:26.679Z,6.40
2023-05-31T03:39:53.746Z,6.40
2023-05-31T03:42:20.751Z,6.50
2023-05-31T03:44:47.868Z,6.50
2023-05-31T03:47:14.860Z,6.60
2023-05-31T03:49:42.252Z,6.60
2023-05-31T03:52:14.321Z,6.70
2023-05-31T03:54:41.352Z,6.70
2023-05-31T03:57:08.349Z,6.70
2023-05-31T03:59:35.706Z,6.70
2023-05-31T04:02:03.965Z,6.70
2023-05-31T04:04:31.293Z,6.70
2023-05-31T04:06:58.306Z,6.80
2023-05-31T04:09:27.159Z,6.80
2023-05-31T04:11:56.213Z,6.80
2023-05-31T04:14:23.233Z,6.90
2023-05-31T04:16:50.940Z,6.90
2023-05-31T04:19:18.034Z,7.00
2023-05-31T04:21:45.252Z,7.00
2023-05-31T04:24:12.237Z,7.10
2023-05-31T04:26:39.264Z,7.10
2023-05-31T04:29:06.263Z,7.20
2023-05-31T04:31:50.007Z,7.30
2023-05-31T04:34:20.555Z,7.50
2023-05-31T04:36:51.394Z,7.70
2023-05-31T04:39:21.298Z,8.00
2023-05-31T04:41:48.712Z,8.20
2023-05-31T04:44:15.798Z,8.30
2023-05-31T04:46:43.315Z,8.30
2023-05-31T04:49:11.172Z,8.30
2023-05-31T04:51:38.168Z,8.40
2023-05-31T04:54:05.404Z,8.40
2023-05-31T04:56:32.615Z,8.50
2023-05-31T04:58:59.583Z,8.50
2023-05-31T05:01:28.370Z,8.60
2023-05-31T05:03:55.394Z,8.70
2023-05-31T05:06:23.393Z,8.70
2023-05-31T05:08:56.901Z,8.80
2023-05-31T05:11:23.928Z,8.90
2023-05-31T05:13:52.319Z,9.00
2023-05-31T05:16:20.077Z,9.10
2023-05-31T05:18:47.099Z,9.20
2023-05-31T05:21:14.158Z,9.30
2023-05-31T05:23:41.804Z,9.40
2023-05-31T05:26:09.362Z,9.50
2023-05-31T05:28:36.567Z,9.70
2023-05-31T05:31:05.082Z,9.90
2023-05-31T05:33:32.412Z,10.00
2023-05-31T05:35:59.538Z,10.20
2023-05-31T05:38:26.507Z,10.30
2023-05-31T05:40:54.146Z,10.40
2023-05-31T05:43:21.582Z,10.60
2023-05-31T05:45:48.459Z,10.80
2023-05-31T05:48:15.597Z,10.90
2023-05-31T05:50:42.507Z,11.00
2023-05-31T05:53:09.711Z,11.20
2023-05-31T05:55:37.360Z,11.40
2023-05-31T05:58:04.644Z,11.50
2023-05-31T06:00:32.045Z,11.60
2023-05-31T06:02:59.231Z,11.70
2023-05-31T06:05:28.128Z,11.80
2023-05-31T06:07:55.392Z,11.90
2023-05-31T06:10:22.569Z,12.00
2023-05-31T06:12:49.648Z,12.20
2023-05-31T06:15:16.772Z,12.30
2023-05-31T06:17:45.279Z,12.40
2023-05-31T06:20:12.527Z,12.60
2023-05-31T06:22:39.624Z,12.70
2023-05-31T06:25:07.081Z,12.80
2023-05-31T06:27:33.991Z,12.90
2023-05-31T06:32:48.929Z,13.10
2023-05-31T06:35:16.415Z,13.20
2023-05-31T06:37:44.208Z,13.30
2023-05-31T06:40:11.438Z,13.40
2023-05-31T06:42:39.170Z,13.60
2023-05-31T06:45:06.816Z,13.70
2023-05-31T06:47:44.326Z,13.90
2023-05-31T06:50:13.257Z,14.00
2023-05-31T06:52:43.915Z,14.20
2023-05-31T06:55:26.773Z,14.40
2023-05-31T06:58:10.245Z,14.40
2023-05-31T07:00:37.545Z,14.50
2023-05-31T07:03:07.189Z,14.70
2023-05-31T07:05:34.175Z,14.80
2023-05-31T07:08:02.994Z,14.90
2023-05-31T07:10:30.289Z,15.00
2023-05-31T07:12:57.301Z,15.00
2023-05-31T07:15:24.989Z,15.10
2023-05-31T07:17:53.606Z,15.20
2023-05-31T07:20:20.686Z,15.20
2023-05-31T07:22:47.586Z,15.40
2023-05-31T07:25:14.462Z,15.50
2023-05-31T07:27:41.385Z,15.50
2023-05-31T07:30:08.790Z,15.60
2023-05-31T07:32:35.981Z,15.70
2023-05-31T07:35:05.319Z,15.80
2023-05-31T07:37:32.353Z,16.00
2023-05-31T07:39:59.721Z,16.10
2023-05-31T07:42:26.707Z,16.20
2023-05-31T07:44:54.624Z,16.30
2023-05-31T07:47:21.881Z,16.30
2023-05-31T07:49:50.952Z,16.40
2023-05-31T07:52:22.768Z,16.60
2023-05-31T07:54:50.219Z,16.70
2023-05-31T07:57:17.780Z,16.80
2023-05-31T07:59:44.706Z,17.00
2023-05-31T08:02:11.717Z,17.10
2023-05-31T08:04:38.728Z,17.20
2023-05-31T08:07:07.767Z,17.30
2023-05-31T08:09:36.221Z,17.40
2023-05-31T08:12:04.073Z,17.50
2023-05-31T08:14:30.938Z,17.60
2023-05-31T08:16:58.258Z,17.70
2023-05-31T08:19:25.316Z,17.90
2023-05-31T08:21:53.102Z,18.10
2023-05-31T08:24:20.162Z,18.20
2023-05-31T08:26:47.080Z,18.30
2023-05-31T08:29:14.029Z,18.30
2023-05-31T08:31:41.319Z,18.30
2023-05-31T08:34:08.340Z,18.30
2023-05-31T08:36:35.755Z,18.30
2023-05-31T08:39:04.827Z,18.40
2023-05-31T08:41:36.378Z,18.50
2023-05-31T08:44:04.569Z,18.60
2023-05-31T08:46:32.064Z,18.70
2023-05-31T08:49:04.647Z,18.80
2023-05-31T08:51:32.658Z,19.00
2023-05-31T08:53:59.685Z,19.00
2023-05-31T08:56:28.047Z,19.00
2023-05-31T08:58:55.448Z,19.20
2023-05-31T09:01:23.700Z,19.20
2023-05-31T09:03:52.901Z,19.30
2023-05-31T09:06:19.781Z,19.40
2023-05-31T09:08:48.772Z,19.40
2023-05-31T09:11:15.981Z,19.40
2023-05-31T09:13:43.114Z,19.60
2023-05-31T09:16:11.041Z,19.70
2023-05-31T09:18:40.077Z,19.90
2023-05-31T09:21:14.645Z,20.10
2023-05-31T09:23:55.352Z,20.10
2023-05-31T09:26:22.812Z,20.20
2023-05-31T09:28:51.493Z,20.40
2023-05-31T09:31:19.094Z,20.40
2023-05-31T09:33:48.880Z,20.40
2023-05-31T09:36:24.921Z,20.60
2023-05-31T09:38:58.898Z,20.80
2023-05-31T09:41:26.954Z,20.90
2023-05-31T09:43:53.885Z,21.10
2023-05-31T09:46:21.946Z,21.10
2023-05-31T09:49:05.766Z,21.20
2023-05-31T09:51:33.699Z,21.30
2023-05-31T09:54:11.222Z,21.40
2023-05-31T09:56:39.273Z,21.40
2023-05-31T09:59:06.583Z,21.60
2023-05-31T10:01:34.584Z,21.80
2023-05-31T10:04:05.841Z,21.70
2023-05-31T10:06:37.589Z,21.70
2023-05-31T10:09:05.435Z,21.80
2023-05-31T10:11:40.788Z,21.90
2023-05-31T10:14:15.998Z,21.90
2023-05-31T10:16:47.216Z,22.10
2023-05-31T10:19:16.278Z,22.20
2023-05-31T10:21:44.442Z,22.10
2023-05-31T10:24:57.981Z,22.20
2023-05-31T10:27:37.404Z,22.40
2023-05-31T10:30:05.885Z,22.50
2023-05-31T10:32:46.260Z,22.80
2023-05-31T10:35:13.325Z,22.80
2023-05-31T10:37:42.243Z,22.70
2023-05-31T10:40:18.588Z,22.70
2023-05-31T10:58:29.313Z,23.10
2023-05-31T11:00:58.905Z,23.30
2023-05-31T11:03:27.585Z,23.60
2023-05-31T11:06:04.935Z,23.30
2023-05-31T11:08:32.510Z,23.20
2023-05-31T11:11:26.759Z,23.30
2023-05-31T11:14:16.921Z,23.40
2023-05-31T11:16:54.595Z,23.40
2023-05-31T11:19:27.148Z,23.50
2023-05-31T11:22:10.584Z,23.50
2023-05-31T11:24:39.673Z,23.50
2023-05-31T11:27:11.539Z,23.70
2023-05-31T11:29:57.546Z,23.90
2023-05-31T11:32:39.948Z,24.10
2023-05-31T11:35:12.305Z,24.10
2023-05-31T11:37:41.598Z,24.00
2023-05-31T11:40:14.105Z,23.80
2023-05-31T11:42:42.722Z,23.90
2023-05-31T11:45:23.768Z,23.80
2023-05-31T11:48:19.312Z,23.70
2023-05-31T11:50:46.347Z,23.60
2023-05-31T11:53:14.595Z,23.80
2023-05-31T11:55:48.538Z,23.80
2023-05-31T11:58:15.683Z,23.70
2023-05-31T12:00:47.431Z,23.50
2023-05-31T12:03:18.344Z,23.50
2023-05-31T12:05:51.649Z,23.70
2023-05-31T12:08:18.962Z,24.00
2023-05-31T12:10:46.766Z,24.30
2023-05-31T12:13:17.057Z,24.30
2023-05-31T12:15:55.140Z,24.30
2023-05-31T12:18:25.816Z,24.40
2023-05-31T12:20:53.980Z,24.40
2023-05-31T12:23:21.596Z,24.20
2023-05-31T12:25:52.191Z,24.10
2023-05-31T12:28:25.630Z,23.80
2023-05-31T12:30:53.248Z,23.60
2023-05-31T12:33:21.397Z,23.70
2023-05-31T12:35:48.891Z,23.60
2023-05-31T12:38:16.630Z,23.40
2023-05-31T12:40:44.762Z,23.50
2023-05-31T12:43:15.887Z,23.60
2023-05-31T12:45:43.554Z,23.70
2023-05-31T12:48:14.107Z,23.30
2023-05-31T12:50:46.121Z,23.10
2023-05-31T12:53:14.265Z,23.10
2023-05-31T12:55:42.213Z,23.10
2023-05-31T12:58:09.566Z,23.10
2023-05-31T13:00:37.097Z,23.00
2023-05-31T13:03:04.457Z,23.10
2023-05-31T13:05:31.434Z,23.30
2023-05-31T13:07:58.388Z,23.10
2023-05-31T13:10:25.227Z,23.00
2023-05-31T13:12:52.286Z,22.90
2023-05-31T13:15:19.650Z,22.70
2023-05-31T13:17:46.679Z,22.70
2023-05-31T13:20:14.611Z,22.80
2023-05-31T13:22:42.381Z,22.80
2023-05-31T13:25:09.979Z,22.70
2023-05-31T13:27:36.907Z,22.60
2023-05-31T13:30:04.383Z,22.80
2023-05-31T13:32:31.879Z,22.90
2023-05-31T13:35:01.260Z,23.10
2023-05-31T13:37:28.888Z,23.40
2023-05-31T13:39:56.992Z,23.40
2023-05-31T13:42:24.601Z,23.40
2023-05-31T13:44:51.728Z,23.40
2023-05-31T13:47:18.805Z,23.30
2023-05-31T13:49:45.720Z,23.30
2023-05-31T13:52:15.261Z,23.40
2023-05-31T13:54:42.507Z,23.40
2023-05-31T13:57:09.505Z,23.40
2023-05-31T13:59:36.433Z,23.30
2023-05-31T14:02:03.384Z,23.20
2023-05-31T14:04:30.328Z,23.10
2023-05-31T14:06:57.214Z,22.80
2023-05-31T14:09:24.125Z,22.60
2023-05-31T14:11:50.958Z,22.60
2023-05-31T14:14:17.978Z,22.60
2023-05-31T14:16:44.946Z,22.80
2023-05-31T14:19:11.916Z,22.90
2023-05-31T14:24:08.632Z,22.40
2023-05-31T14:26:35.497Z,22.40
2023-05-31T14:29:02.313Z,22.20
2023-05-31T14:31:29.213Z,22.20
2023-05-31T14:33:56.136Z,22.00
2023-05-31T14:36:23.372Z,22.00
2023-05-31T14:38:50.847Z,21.90
2023-05-31T14:41:17.647Z,21.80
2023-05-31T14:43:44.483Z,21.60
2023-05-31T14:46:11.881Z,21.70
2023-05-31T14:48:38.875Z,21.70
2023-05-31T14:51:05.927Z,21.80
2023-05-31T14:53:32.789Z,21.70
2023-05-31T14:56:16.696Z,21.60
2023-05-31T14:58:47.049Z,21.50
2023-05-31T15:01:14.638Z,21.40
2023-05-31T15:03:41.549Z,21.50
2023-05-31T15:06:08.613Z,21.60
2023-05-31T15:08:36.387Z,21.50
2023-05-31T15:11:03.631Z,21.50
2023-05-31T15:13:30.944Z,21.50
2023-05-31T15:15:57.820Z,21.50
2023-05-31T15:18:24.784Z,21.30
2023-05-31T15:20:51.910Z,21.30
2023-05-31T15:23:19.232Z,21.40
2023-05-31T15:25:46.188Z,21.50
2023-05-31T15:28:13.002Z,21.50
2023-05-31T15:30:40.255Z,21.30
2023-05-31T15:33:07.206Z,21.40
2023-05-31T15:35:37.424Z,21.40
2023-05-31T15:38:04.299Z,21.30
2023-05-31T15:40:31.144Z,21.40
2023-05-31T15:42:58.016Z,21.40
2023-05-31T15:45:27.844Z,21.30
2023-05-31T15:47:54.702Z,21.10
2023-05-31T15:50:21.903Z,20.90
2023-05-31T15:52:48.729Z,20.80
2023-05-31T15:55:15.677Z,20.70
2023-05-31T15:57:42.570Z,20.70
2023-05-31T16:00:10.225Z,20.50
2023-05-31T16:02:52.206Z,20.50
2023-05-31T16:05:19.083Z,20.50
2023-05-31T16:07:54.937Z,20.40
2023-05-31T16:10:21.924Z,20.40
2023-05-31T16:12:52.334Z,20.40
2023-05-31T16:15:22.258Z,20.50
2023-05-31T16:17:49.231Z,20.40
2023-05-31T16:20:16.375Z,20.40
2023-05-31T16:22:43.464Z,20.40
2023-05-31T16:25:11.844Z,20.20
2023-05-31T16:27:39.355Z,20.10
2023-05-31T16:30:07.108Z,20.00
2023-05-31T16:32:34.002Z,19.80
2023-05-31T16:35:00.860Z,19.80
2023-05-31T16:37:27.828Z,19.70
2023-05-31T16:39:54.665Z,19.50
2023-05-31T16:42:21.549Z,19.60
2023-05-31T16:44:49.690Z,19.60
2023-05-31T16:47:16.553Z,19.60
2023-05-31T16:49:44.320Z,19.50
2023-05-31T16:52:11.176Z,19.40
2023-05-31T16:54:38.010Z,19.40
2023-05-31T16:57:05.034Z,19.20
2023-05-31T16:59:32.082Z,19.20
2023-05-31T17:01:59.921Z,19.10
2023-05-31T17:04:26.858Z,19.00
2023-05-31T17:06:54.425Z,18.90
2023-05-31T17:09:21.291Z,18.80
2023-05-31T17:11:48.162Z,18.70
2023-05-31T17:14:14.932Z,18.60
2023-05-31T17:16:41.863Z,18.60
2023-05-31T17:19:08.669Z,18.50
2023-05-31T17:21:37.875Z,18.50
2023-05-31T17:24:05.062Z,18.40
2023-05-31T17:26:31.936Z,18.30
2023-05-31T17:28:58.839Z,18.30
2023-05-31T17:31:25.682Z,18.20
2023-05-31T17:33:53.564Z,18.10
2023-05-31T17:36:22.087Z,18.00
2023-05-31T17:38:48.887Z,17.90
2023-05-31T17:41:18.943Z,17.80
2023-05-31T17:43:48.301Z,17.80
2023-05-31T17:46:15.127Z,17.80
2023-05-31T17:48:43.577Z,17.70
2023-05-31T17:51:11.100Z,17.70
2023-05-31T17:53:37.985Z,17.70
2023-05-31T17:56:04.899Z,17.70
2023-05-31T17:58:31.845Z,17.60
2023-05-31T18:00:59.163Z,17.60
2023-05-31T18:03:27.825Z,17.60
2023-05-31T18:05:54.828Z,17.50
2023-05-31T18:08:23.001Z,17.40
2023-05-31T18:10:50.034Z,17.40
2023-05-31T18:13:16.945Z,17.40
2023-05-31T18:15:43.916Z,17.40
2023-05-31T18:18:18.639Z,17.40
2023-05-31T18:20:46.371Z,17.40
2023-05-31T18:23:13.360Z,17.40
2023-05-31T18:25:40.341Z,17.30
2023-05-31T18:28:07.182Z,17.30
2023-05-31T18:30:34.536Z,17.20
2023-05-31T18:33:01.453Z,17.20
2023-05-31T18:35:28.411Z,17.10
2023-05-31T18:37:55.375Z,16.90
2023-05-31T18:40:22.280Z,16.80
2023-05-31T18:42:49.121Z,16.70
2023-05-31T18:45:16.224Z,16.60
2023-05-31T18:47:43.215Z,16.50
2023-05-31T18:50:10.526Z,16.40
2023-05-31T18:52:37.689Z,16.30
2023-05-31T18:55:04.957Z,16.10
2023-05-31T18:57:31.724Z,16.00
2023-05-31T18:59:58.545Z,15.90
2023-05-31T19:02:25.497Z,15.80
2023-05-31T19:04:52.550Z,15.70
2023-05-31T19:07:19.466Z,15.60
2023-05-31T19:09:46.456Z,15.60
2023-05-31T19:12:23.043Z,15.50
2023-05-31T19:14:57.421Z,15.40
2023-05-31T19:17:24.259Z,15.30
2023-05-31T19:19:51.173Z,15.20
2023-05-31T19:22:18.137Z,15.20
2023-05-31T19:24:45.030Z,15.10
2023-05-31T19:27:11.931Z,15.00
2023-05-31T19:29:38.790Z,14.90
2023-05-31T19:32:07.845Z,14.90
2023-05-31T19:34:37.474Z,14.80
2023-05-31T19:37:04.649Z,14.60
2023-05-31T19:39:31.575Z,14.60
2023-05-31T19:41:59.973Z,14.50
2023-05-31T19:44:26.991Z,14.40
2023-05-31T19:46:56.326Z,14.40
2023-05-31T19:49:23.410Z,14.30
2023-05-31T19:51:50.666Z,14.10
2023-05-31T19:54:19.272Z,14.10
2023-05-31T19:56:46.210Z,14.00
2023-05-31T19:59:13.179Z,13.90
2023-05-31T20:01:40.350Z,13.80
2023-05-31T20:04:07.338Z,13.80
2023-05-31T20:06:34.249Z,13.70
2023-05-31T20:09:01.219Z,13.60
2023-05-31T20:11:28.171Z,13.60
2023-05-31T20:13:55.078Z,13.50
2023-05-31T20:16:22.064Z,13.50
2023-05-31T20:18:49.164Z,13.30
2023-05-31T20:21:16.477Z,13.30
2023-05-31T20:23:43.364Z,13.20
2023-05-31T20:26:10.427Z,13.20
2023-05-31T20:28:37.290Z,13.10
2023-05-31T20:31:04.291Z,13.10
2023-05-31T20:33:31.143Z,13.00
2023-05-31T20:35:58.072Z,12.90
2023-05-31T20:38:24.914Z,12.80
2023-05-31T20:40:53.184Z,12.80
2023-05-31T20:43:20.459Z,12.60
2023-05-31T20:45:47.423Z,12.60
2023-05-31T20:48:14.647Z,12.60
2023-05-31T20:50:44.313Z,12.50
2023-05-31T20:53:11.267Z,12.40
2023-05-31T20:55:39.830Z,12.40
2023-05-31T20:58:07.090Z,12.40
2023-05-31T21:00:34.594Z,12.30
2023-05-31T21:03:01.544Z,12.20
2023-05-31T21:05:28.510Z,12.20
2023-05-31T21:07:56.627Z,12.10
2023-05-31T21:10:23.424Z,12.10
2023-05-31T21:12:50.296Z,12.00
2023-05-31T21:15:17.260Z,12.00
2023-05-31T21:17:44.239Z,11.90
2023-05-31T21:20:11.733Z,11.90
2023-05-31T21:22:38.579Z,11.90
2023-05-31T21:25:05.795Z,11.80
2023-05-31T21:27:32.696Z,11.80
2023-05-31T21:29:59.523Z,11.70
2023-05-31T21:32:26.483Z,11.70
2023-05-31T21:34:53.461Z,11.70
2023-05-31T21:37:20.303Z,11.60
2023-05-31T21:39:47.219Z,11.60
2023-05-31T21:42:14.100Z,11.60
2023-05-31T21:44:41.735Z,11.50
2023-05-31T21:47:08.629Z,11.50
2023-05-31T21:49:37.379Z,11.50
2023-05-31T21:52:04.936Z,11.50
2023-05-31T21:54:31.762Z,11.40
2023-05-31T21:56:58.584Z,11.40
2023-05-31T21:59:25.701Z,11.40
2023-05-31T22:01:52.524Z,11.30
2023-05-31T22:04:19.413Z,11.30
2023-05-31T22:06:46.882Z,11.20
2023-05-31T22:09:13.730Z,11.20
2023-05-31T22:11:40.799Z,11.10
2023-05-31T22:14:08.225Z,11.10
2023-05-31T22:16:35.211Z,11.10
2023-05-31T22:19:02.920Z,11.00
2023-05-31T22:21:34.074Z,11.00
2023-05-31T22:24:01.639Z,11.00
2023-05-31T22:26:31.034Z,10.90
2023-05-31T22:28:58.247Z,10.90
2023-05-31T22:31:27.455Z,10.90
2023-05-31T22:33:54.571Z,10.90
2023-05-31T22:36:22.257Z,10.90
2023-05-31T22:38:49.106Z,10.80
2023-05-31T22:41:15.975Z,10.80
2023-05-31T22:43:42.839Z,10.80
2023-05-31T22:46:09.877Z,10.70
2023-05-31T22:48:38.629Z,10.70
2023-05-31T22:51:07.337Z,10.70
2023-05-31T22:53:34.431Z,10.60
2023-05-31T22:56:01.473Z,10.60
2023-05-31T22:58:28.384Z,10.60
2023-05-31T23:00:55.760Z,10.50
2023-05-31T23:03:22.907Z,10.50
2023-05-31T23:05:50.580Z,10.50
2023-05-31T23:08:19.604Z,10.40
2023-05-31T23:10:46.607Z,10.40
2023-05-31T23:13:13.715Z,10.40
2023-05-31T23:15:40.720Z,10.30
2023-05-31T23:18:08.818Z,10.30
2023-05-31T23:20:39.019Z,10.30
2023-05-31T23:23:07.671Z,10.30
2023-05-31T23:25:34.837Z,10.40
2023-05-31T23:28:01.997Z,10.40
2023-05-31T23:30:28.896Z,10.40
2023-05-31T23:32:55.819Z,10.40
2023-05-31T23:35:22.886Z,10.40
2023-05-31T23:37:49.908Z,10.40
2023-05-31T23:40:16.895Z,10.40
2023-05-31T23:42:43.689Z,10.40
2023-05-31T23:45:12.169Z,10.40
2023-05-31T23:47:40.756Z,10.50
2023-05-31T23:50:08.353Z,10.50
2023-05-31T23:52:35.441Z,10.50
2023-05-31T23:55:02.964Z,10.50
2023-05-31T23:57:32.736Z,10.50
2023-05-31T23:59:59.655Z,10.60
